sensor_id;sensor_type;location;lat;lon;timestamp;P1;durP1;ratioP1;P2;durP2;ratioP2
950;SDS011;462;48.758;9.256;2022-10-31T00:06:29;12.90;;;7.80;;
950;SDS011;462;48.758;9.256;2022-10-31T00:14:31;11.70;;;7.83;;
950;SDS011;462;48.758;9.256;2022-10-31T00:22:35;13.80;;;9.43;;
950;SDS011;462;48.758;9.256;2022-10-31T00:30:37;11.70;;;10.50;;
950;SDS011;462;48.758;9.256;2022-10-31T00:38:41;13.47;;;11.80;;
950;SDS011;462;48.758;9.256;2022-10-31T00:46:44;14.47;;;11.07;;
950;SDS011;462;48.758;9.256;2022-10-31T00:54:48;15.50;;;10.67;;
950;SDS011;462;48.758;9.256;2022-10-31T01:02:50;12.83;;;10.90;;
950;SDS011;462;48.758;9.256;2022-10-31T01:11:05;15.30;;;9.53;;
950;SDS011;462;48.758;9.256;2022-10-31T01:19:08;9.93;;;8.93;;
950;SDS011;462;48.758;9.256;2022-10-31T01:27:12;17.13;;;10.37;;
950;SDS011;462;48.758;9.256;2022-10-31T01:35:15;20.20;;;10.73;;
950;SDS011;462;48.758;9.256;2022-10-31T01:43:19;10.80;;;8.20;;
950;SDS011;462;48.758;9.256;2022-10-31T01:51:22;10.23;;;7.67;;
950;SDS011;462;48.758;9.256;2022-10-31T01:59:29;12.90;;;8.73;;
950;SDS011;462;48.758;9.256;2022-10-31T02:07:33;14.10;;;10.17;;
950;SDS011;462;48.758;9.256;2022-10-31T02:15:41;12.63;;;10.27;;
950;SDS011;462;48.758;9.256;2022-10-31T02:32:25;10.97;;;9.87;;
950;SDS011;462;48.758;9.256;2022-10-31T02:40:30;13.23;;;9.73;;
950;SDS011;462;48.758;9.256;2022-10-31T02:48:57;12.83;;;8.50;;
950;SDS011;462;48.758;9.256;2022-10-31T02:57:05;13.83;;;10.47;;
950;SDS011;462;48.758;9.256;2022-10-31T03:05:13;12.30;;;9.83;;
950;SDS011;462;48.758;9.256;2022-10-31T03:13:38;9.67;;;8.77;;
950;SDS011;462;48.758;9.256;2022-10-31T03:21:44;10.20;;;8.87;;
950;SDS011;462;48.758;9.256;2022-10-31T03:29:50;13.43;;;9.33;;
950;SDS011;462;48.758;9.256;2022-10-31T03:37:57;9.83;;;8.43;;
950;SDS011;462;48.758;9.256;2022-10-31T03:46:02;11.60;;;8.70;;
950;SDS011;462;48.758;9.256;2022-10-31T03:54:08;11.80;;;8.70;;
950;SDS011;462;48.758;9.256;2022-10-31T04:02:15;11.30;;;8.07;;
950;SDS011;462;48.758;9.256;2022-10-31T04:10:21;12.33;;;7.60;;
950;SDS011;462;48.758;9.256;2022-10-31T04:18:25;11.37;;;7.80;;
950;SDS011;462;48.758;9.256;2022-10-31T04:26:29;11.73;;;8.23;;
950;SDS011;462;48.758;9.256;2022-10-31T04:34:32;11.03;;;8.80;;
950;SDS011;462;48.758;9.256;2022-10-31T04:42:36;10.03;;;7.80;;
950;SDS011;462;48.758;9.256;2022-10-31T04:50:39;13.10;;;8.60;;
950;SDS011;462;48.758;9.256;2022-10-31T04:58:43;9.13;;;8.10;;
950;SDS011;462;48.758;9.256;2022-10-31T05:06:46;10.47;;;8.40;;
950;SDS011;462;48.758;9.256;2022-10-31T05:14:50;12.27;;;7.90;;
950;SDS011;462;48.758;9.256;2022-10-31T05:23:15;12.07;;;8.67;;
950;SDS011;462;48.758;9.256;2022-10-31T05:31:19;12.73;;;8.80;;
950;SDS011;462;48.758;9.256;2022-10-31T05:39:24;10.10;;;7.33;;
950;SDS011;462;48.758;9.256;2022-10-31T05:47:31;9.23;;;8.03;;
950;SDS011;462;48.758;9.256;2022-10-31T05:56:00;10.70;;;8.73;;
950;SDS011;462;48.758;9.256;2022-10-31T06:04:05;13.43;;;8.07;;
950;SDS011;462;48.758;9.256;2022-10-31T06:12:10;10.40;;;8.33;;
950;SDS011;462;48.758;9.256;2022-10-31T06:20:39;13.63;;;9.13;;
950;SDS011;462;48.758;9.256;2022-10-31T06:28:42;8.33;;;7.43;;
950;SDS011;462;48.758;9.256;2022-10-31T06:36:58;9.57;;;7.83;;
950;SDS011;462;48.758;9.256;2022-10-31T06:45:03;12.40;;;8.23;;
950;SDS011;462;48.758;9.256;2022-10-31T06:53:36;10.47;;;8.23;;
950;SDS011;462;48.758;9.256;2022-10-31T07:01:41;9.37;;;8.10;;
950;SDS011;462;48.758;9.256;2022-10-31T07:09:47;11.80;;;8.30;;
950;SDS011;462;48.758;9.256;2022-10-31T07:17:53;8.40;;;7.07;;
950;SDS011;462;48.758;9.256;2022-10-31T07:26:01;11.47;;;8.07;;
950;SDS011;462;48.758;9.256;2022-10-31T07:34:12;12.80;;;7.60;;
950;SDS011;462;48.758;9.256;2022-10-31T07:42:35;9.10;;;7.80;;
950;SDS011;462;48.758;9.256;2022-10-31T07:50:39;16.00;;;8.70;;
950;SDS011;462;48.758;9.256;2022-10-31T07:59:01;9.83;;;6.93;;
950;SDS011;462;48.758;9.256;2022-10-31T08:07:04;12.10;;;7.57;;
950;SDS011;462;48.758;9.256;2022-10-31T08:15:11;8.23;;;7.30;;
950;SDS011;462;48.758;9.256;2022-10-31T08:23:14;9.47;;;7.33;;
950;SDS011;462;48.758;9.256;2022-10-31T08:31:19;13.87;;;8.40;;
950;SDS011;462;48.758;9.256;2022-10-31T08:39:21;10.83;;;7.53;;
950;SDS011;462;48.758;9.256;2022-10-31T08:47:26;8.17;;;6.80;;
950;SDS011;462;48.758;9.256;2022-10-31T08:55:30;11.27;;;7.47;;
950;SDS011;462;48.758;9.256;2022-10-31T09:03:37;10.77;;;7.30;;
950;SDS011;462;48.758;9.256;2022-10-31T09:11:41;9.50;;;6.80;;
950;SDS011;462;48.758;9.256;2022-10-31T09:20:11;9.80;;;6.90;;
950;SDS011;462;48.758;9.256;2022-10-31T09:28:14;12.67;;;6.60;;
950;SDS011;462;48.758;9.256;2022-10-31T09:36:21;18.00;;;7.50;;
950;SDS011;462;48.758;9.256;2022-10-31T09:44:25;11.07;;;8.10;;
950;SDS011;462;48.758;9.256;2022-10-31T09:52:34;10.07;;;7.90;;
950;SDS011;462;48.758;9.256;2022-10-31T10:00:41;9.00;;;6.80;;
950;SDS011;462;48.758;9.256;2022-10-31T10:08:46;11.70;;;7.40;;
950;SDS011;462;48.758;9.256;2022-10-31T10:17:19;9.97;;;7.87;;
950;SDS011;462;48.758;9.256;2022-10-31T10:25:31;10.07;;;7.50;;
950;SDS011;462;48.758;9.256;2022-10-31T10:33:36;13.53;;;7.60;;
950;SDS011;462;48.758;9.256;2022-10-31T10:41:43;11.17;;;7.50;;
950;SDS011;462;48.758;9.256;2022-10-31T10:50:02;9.03;;;7.80;;
950;SDS011;462;48.758;9.256;2022-10-31T10:58:09;9.20;;;7.87;;
950;SDS011;462;48.758;9.256;2022-10-31T11:06:18;10.33;;;7.87;;
950;SDS011;462;48.758;9.256;2022-10-31T11:14:27;10.57;;;7.00;;
950;SDS011;462;48.758;9.256;2022-10-31T11:22:31;6.93;;;6.23;;
950;SDS011;462;48.758;9.256;2022-10-31T11:30:44;11.33;;;6.70;;
950;SDS011;462;48.758;9.256;2022-10-31T11:38:47;10.97;;;7.60;;
950;SDS011;462;48.758;9.256;2022-10-31T11:46:52;9.10;;;7.00;;
950;SDS011;462;48.758;9.256;2022-10-31T11:54:58;11.13;;;6.87;;
950;SDS011;462;48.758;9.256;2022-10-31T12:03:10;10.97;;;7.53;;
950;SDS011;462;48.758;9.256;2022-10-31T12:11:19;11.03;;;6.90;;
950;SDS011;462;48.758;9.256;2022-10-31T12:19:32;10.93;;;8.20;;
950;SDS011;462;48.758;9.256;2022-10-31T12:27:42;8.00;;;6.37;;
950;SDS011;462;48.758;9.256;2022-10-31T12:35:58;9.90;;;7.47;;
950;SDS011;462;48.758;9.256;2022-10-31T12:44:12;14.33;;;7.03;;
950;SDS011;462;48.758;9.256;2022-10-31T12:52:29;10.70;;;8.43;;
950;SDS011;462;48.758;9.256;2022-10-31T13:00:40;9.00;;;6.53;;
950;SDS011;462;48.758;9.256;2022-10-31T13:08:47;11.53;;;6.90;;
950;SDS011;462;48.758;9.256;2022-10-31T13:16:52;10.80;;;6.90;;
950;SDS011;462;48.758;9.256;2022-10-31T13:24:59;9.70;;;7.13;;
950;SDS011;462;48.758;9.256;2022-10-31T13:33:08;9.80;;;8.00;;
950;SDS011;462;48.758;9.256;2022-10-31T13:41:17;9.57;;;7.60;;
950;SDS011;462;48.758;9.256;2022-10-31T13:49:38;9.03;;;7.27;;
950;SDS011;462;48.758;9.256;2022-10-31T13:57:43;14.90;;;7.73;;
950;SDS011;462;48.758;9.256;2022-10-31T14:05:51;12.23;;;8.03;;
950;SDS011;462;48.758;9.256;2022-10-31T14:13:55;11.20;;;9.93;;
950;SDS011;462;48.758;9.256;2022-10-31T14:21:58;12.43;;;9.33;;
950;SDS011;462;48.758;9.256;2022-10-31T14:30:12;12.70;;;8.27;;
950;SDS011;462;48.758;9.256;2022-10-31T14:38:29;13.30;;;8.37;;
950;SDS011;462;48.758;9.256;2022-10-31T14:46:46;16.67;;;10.20;;
950;SDS011;462;48.758;9.256;2022-10-31T14:54:53;15.83;;;9.80;;
950;SDS011;462;48.758;9.256;2022-10-31T15:03:00;22.27;;;11.43;;
950;SDS011;462;48.758;9.256;2022-10-31T15:11:10;17.60;;;8.70;;
950;SDS011;462;48.758;9.256;2022-10-31T15:19:16;12.23;;;8.80;;
950;SDS011;462;48.758;9.256;2022-10-31T15:27:23;18.33;;;13.60;;
950;SDS011;462;48.758;9.256;2022-10-31T15:35:29;12.67;;;9.87;;
950;SDS011;462;48.758;9.256;2022-10-31T15:43:32;23.97;;;15.50;;
950;SDS011;462;48.758;9.256;2022-10-31T15:51:38;13.20;;;11.80;;
950;SDS011;462;48.758;9.256;2022-10-31T15:59:41;24.17;;;17.00;;
950;SDS011;462;48.758;9.256;2022-10-31T16:07:49;26.53;;;16.00;;
950;SDS011;462;48.758;9.256;2022-10-31T16:15:54;32.60;;;21.07;;
950;SDS011;462;48.758;9.256;2022-10-31T16:24:00;32.03;;;19.47;;
950;SDS011;462;48.758;9.256;2022-10-31T16:32:04;31.43;;;20.70;;
950;SDS011;462;48.758;9.256;2022-10-31T16:40:23;30.57;;;23.00;;
950;SDS011;462;48.758;9.256;2022-10-31T16:48:27;25.57;;;15.80;;
950;SDS011;462;48.758;9.256;2022-10-31T16:56:31;23.50;;;12.60;;
950;SDS011;462;48.758;9.256;2022-10-31T17:04:34;22.57;;;17.40;;
950;SDS011;462;48.758;9.256;2022-10-31T17:12:39;20.70;;;14.77;;
950;SDS011;462;48.758;9.256;2022-10-31T17:20:43;17.70;;;15.20;;
950;SDS011;462;48.758;9.256;2022-10-31T17:28:47;20.70;;;15.70;;
950;SDS011;462;48.758;9.256;2022-10-31T17:36:49;22.20;;;14.43;;
950;SDS011;462;48.758;9.256;2022-10-31T17:44:53;20.50;;;13.70;;
950;SDS011;462;48.758;9.256;2022-10-31T17:52:56;17.13;;;14.63;;
950;SDS011;462;48.758;9.256;2022-10-31T18:01:05;15.00;;;12.27;;
950;SDS011;462;48.758;9.256;2022-10-31T18:09:08;19.70;;;16.93;;
950;SDS011;462;48.758;9.256;2022-10-31T18:17:12;24.37;;;17.50;;
950;SDS011;462;48.758;9.256;2022-10-31T18:25:15;20.13;;;15.67;;
950;SDS011;462;48.758;9.256;2022-10-31T18:33:19;24.20;;;18.60;;
950;SDS011;462;48.758;9.256;2022-10-31T18:41:21;18.63;;;15.50;;
950;SDS011;462;48.758;9.256;2022-10-31T18:49:25;23.17;;;16.93;;
950;SDS011;462;48.758;9.256;2022-10-31T18:57:31;25.17;;;19.37;;
950;SDS011;462;48.758;9.256;2022-10-31T19:05:35;31.20;;;23.40;;
950;SDS011;462;48.758;9.256;2022-10-31T19:13:38;34.33;;;27.20;;
950;SDS011;462;48.758;9.256;2022-10-31T19:21:43;20.43;;;16.13;;
950;SDS011;462;48.758;9.256;2022-10-31T19:29:45;22.70;;;19.27;;
950;SDS011;462;48.758;9.256;2022-10-31T19:37:49;18.80;;;15.80;;
950;SDS011;462;48.758;9.256;2022-10-31T19:45:52;20.70;;;16.13;;
950;SDS011;462;48.758;9.256;2022-10-31T19:53:57;19.03;;;14.23;;
950;SDS011;462;48.758;9.256;2022-10-31T20:01:59;17.97;;;15.30;;
950;SDS011;462;48.758;9.256;2022-10-31T20:10:03;17.73;;;15.90;;
950;SDS011;462;48.758;9.256;2022-10-31T20:18:07;19.60;;;15.87;;
950;SDS011;462;48.758;9.256;2022-10-31T20:26:12;19.00;;;13.43;;
950;SDS011;462;48.758;9.256;2022-10-31T20:34:15;17.63;;;14.57;;
950;SDS011;462;48.758;9.256;2022-10-31T20:42:19;19.53;;;16.53;;
950;SDS011;462;48.758;9.256;2022-10-31T20:50:23;19.47;;;17.47;;
950;SDS011;462;48.758;9.256;2022-10-31T20:58:27;19.60;;;16.03;;
950;SDS011;462;48.758;9.256;2022-10-31T21:06:29;29.83;;;21.50;;
950;SDS011;462;48.758;9.256;2022-10-31T21:14:33;19.80;;;16.93;;
950;SDS011;462;48.758;9.256;2022-10-31T21:22:36;19.97;;;17.80;;
950;SDS011;462;48.758;9.256;2022-10-31T21:30:40;23.03;;;16.77;;
950;SDS011;462;48.758;9.256;2022-10-31T21:38:43;24.67;;;17.10;;
950;SDS011;462;48.758;9.256;2022-10-31T21:46:51;28.80;;;23.03;;
950;SDS011;462;48.758;9.256;2022-10-31T21:54:54;19.00;;;13.83;;
950;SDS011;462;48.758;9.256;2022-10-31T22:02:58;25.17;;;17.70;;
950;SDS011;462;48.758;9.256;2022-10-31T22:11:00;21.07;;;18.90;;
950;SDS011;462;48.758;9.256;2022-10-31T22:19:04;18.63;;;16.63;;
950;SDS011;462;48.758;9.256;2022-10-31T22:27:07;19.60;;;17.53;;
950;SDS011;462;48.758;9.256;2022-10-31T22:35:11;17.57;;;15.73;;
950;SDS011;462;48.758;9.256;2022-10-31T22:43:13;16.77;;;14.50;;
950;SDS011;462;48.758;9.256;2022-10-31T22:51:18;19.37;;;15.13;;
950;SDS011;462;48.758;9.256;2022-10-31T22:59:21;17.10;;;14.53;;
950;SDS011;462;48.758;9.256;2022-10-31T23:07:25;21.00;;;17.10;;
950;SDS011;462;48.758;9.256;2022-10-31T23:15:27;20.50;;;14.80;;
950;SDS011;462;48.758;9.256;2022-10-31T23:23:33;19.70;;;13.40;;
950;SDS011;462;48.758;9.256;2022-10-31T23:31:36;19.63;;;15.33;;
950;SDS011;462;48.758;9.256;2022-10-31T23:39:40;16.33;;;13.57;;
950;SDS011;462;48.758;9.256;2022-10-31T23:47:42;21.97;;;17.80;;
950;SDS011;462;48.758;9.256;2022-10-31T23:55:46;27.97;;;19.93;;
